KLWM

Lawrence Municipal Airport

Lawrence, Massachusetts, USA
METAR KLWM 190506Z AUTO 00000KT 3SM BR FEW060 20/18 A2979 RMK AO2 T02000178
Observed Flight Rules
Sep-19 @ 05:06 UTC (7 minutes ago) Marginal Visual Flight Rules
Visibility Clouds Conditions
3 miles
  • Few at 6,000' AGL
  • Mist
Temperatures Readings
Current 20°C / 68°F
Dewpoint 18°C / 64°F
Humidity 88%
Altimeter 29.79" Hg
Pressure 1009 hPa
Elevation 54
METAR KLWM 190506Z AUTO 00000KT 3SM BR FEW060 20/18 A2979 RMK AO2 T02000178
Observed Flight Rules
Sep-19 @ 05:06 UTC
(7 minutes ago)
MVFR
Clouds
  • Few at 6,000' AGL
Conditions
  • Mist
Temperature Dewpoint
20°C / 68°F 18°C / 64°F
Humidity Altimeter Pressure
88% 29.79" Hg 1009 hPa